Terminal Aerodrome Forecast
Issued by NWS

Home | Current Version | Previous Version | Text Only | Print | Product List | Glossary On
Versions: 1 2 3 4 5 6 7 8 9 10 11 12 13
000
FTUS41 KPHI 290500
TAFPNE
TAF
KPNE 290530Z 2906/3006 33007KT P6SM BKN040 OVC100
     FM291100 36007KT P6SM BKN150
     FM291500 36005KT P6SM SCT050 BKN250
     FM300200 02005KT P6SM OVC100=

USA.gov is the U.S. government's official web portal to all federal, state and local government web resources and services.